Cynthiana, IN (47612)

12:42 PM CDT on July 27, 2016 (GMT -0500)
SR 165 | | Change Station

Elev 456 ft 38.11 °N, 87.79 °W | Updated 10 seconds ago

Partly Cloudy
Partly Cloudy
87.4 °F
Feels Like 100 °F
N
0.0
Wind Variable Wind from West
Gusts 0.0 mph

Today
High -- | Low -- °F
--% Chance of Precip.
Yesterday
High -- | Low -- °F
Precip. -- in
Pressure 29.98 in
Visibility 10.0 miles
Clouds Few 2700 ft
Heat Index 100 °F
Dew Point 78 °F
Humidity 73%
Rainfall 0.00 in
Snow Depth Not available.
5:49 AM 8:04 PM
Last Quarter, 41% visible
METAR KEVV 271654Z 00000KT 10SM FEW027 31/23 A2999 RMK AO2 SLP150 T03110233
Pressure 29.98 in
Visibility 10.0 miles
Clouds Few 2700 ft
Heat Index 100 °F
Dew Point 78 °F
Humidity 73%
Rainfall 0.00 in
Snow Depth Not available.
5:49 AM 8:04 PM
Last Quarter, 41% visible
METAR KEVV 271654Z 00000KT 10SM FEW027 31/23 A2999 RMK AO2 SLP150 T03110233

10-Day Weather Forecast

Almanac

Astronomy

Jul. 27, 2016 Rise Set
Actual Time
Civil Twilight
Nautical Twilight
Astronomical Twilight
Moon
Length of Visible Light
Length of Day
Tomorrow will be .
, % of the Moon is Illuminated

Today's Extremes

State Highs State Lows

Community

WunderPhotos

Upload Photos

1,927,889 photos uploaded!

WunderBlog® & News

Nearby

Air Quality

  Air Quality AQ Index Pollutant
Not available.

Snow Depth

Station Depth Elevation

Earthquake Activity

City Distance Mag. Time & Date
Minimum magnitude displayed is 2.5.

Coastal Water Temperatures

Place Temperature

Stations

Nearby Weather Stations

Station Location Temp. Windchill Dew Point Humidity Wind Precip. Elev Updated Type
                   

Watches & Warnings

There are currently no watches in effect.